createdAt,value
2023-05-25T00:01:49.547Z,66.41
2023-05-25T00:04:19.703Z,65.43
2023-05-25T00:06:47.698Z,66.28
2023-05-25T00:09:15.535Z,66.17
2023-05-25T00:11:43.010Z,67.29
2023-05-25T00:14:10.582Z,67.02
2023-05-25T00:16:38.171Z,65.89
2023-05-25T00:19:11.247Z,66.06
2023-05-25T00:21:38.785Z,66.74
2023-05-25T00:24:07.650Z,67.52
2023-05-25T00:26:36.275Z,66.49
2023-05-25T00:29:07.381Z,67.50
2023-05-25T00:31:36.963Z,68.13
2023-05-25T00:34:04.613Z,68.50
2023-05-25T00:36:32.089Z,68.81
2023-05-25T00:38:59.633Z,69.07
2023-05-25T00:41:28.427Z,70.04
2023-05-25T00:43:56.027Z,70.05
2023-05-25T00:46:24.212Z,70.07
2023-05-25T00:48:56.406Z,69.71
2023-05-25T00:51:25.604Z,69.98
2023-05-25T00:53:53.452Z,70.20
2023-05-25T00:56:30.938Z,70.38
2023-05-25T00:59:07.023Z,70.54
2023-05-25T01:01:40.487Z,71.75
2023-05-25T01:04:11.198Z,71.23
2023-05-25T01:06:43.429Z,73.07
2023-05-25T01:09:16.195Z,71.14
2023-05-25T01:11:51.545Z,72.89
2023-05-25T01:14:25.022Z,72.21
2023-05-25T01:16:52.828Z,74.49
2023-05-25T01:19:20.340Z,74.68
2023-05-25T01:22:11.030Z,74.15
2023-05-25T01:24:51.028Z,75.11
2023-05-25T04:23:19.735Z,91.61
2023-05-25T04:25:47.528Z,89.76
2023-05-25T04:28:15.040Z,88.85
2023-05-25T04:30:42.509Z,89.26
2023-05-25T04:33:13.764Z,88.12
2023-05-25T04:35:41.235Z,86.92
2023-05-25T04:38:08.694Z,85.11
2023-05-25T04:40:36.183Z,84.54
2023-05-25T04:43:03.704Z,84.65
2023-05-25T04:45:33.399Z,88.39
2023-05-25T04:48:01.998Z,87.81
2023-05-25T04:50:29.606Z,86.72
2023-05-25T04:52:57.516Z,82.61
2023-05-25T04:55:25.011Z,84.80
2023-05-25T04:57:53.458Z,86.25
2023-05-25T05:00:22.091Z,82.26
2023-05-25T05:02:50.169Z,81.42
2023-05-25T05:05:18.464Z,81.35
2023-05-25T05:07:46.117Z,79.90
2023-05-25T05:10:13.815Z,80.73
2023-05-25T05:12:41.277Z,81.55
2023-05-25T05:15:09.238Z,79.92
2023-05-25T05:17:37.045Z,77.79
2023-05-25T05:20:05.453Z,79.72
2023-05-25T05:22:33.950Z,79.05
2023-05-25T05:25:02.220Z,79.84
2023-05-25T05:27:29.775Z,79.61
2023-05-25T05:29:57.280Z,82.21
2023-05-25T05:32:24.705Z,80.38
2023-05-25T05:34:52.239Z,79.20
2023-05-25T05:37:19.750Z,79.47
2023-05-25T05:39:47.362Z,78.34
2023-05-25T05:42:14.869Z,80.44
2023-05-25T05:44:42.387Z,79.64
2023-05-25T05:47:09.993Z,79.76
2023-05-25T05:49:39.408Z,81.30
2023-05-25T05:52:11.662Z,79.03
2023-05-25T05:54:39.116Z,80.67
2023-05-25T05:57:06.886Z,82.89
2023-05-25T05:59:35.600Z,79.40
2023-05-25T06:02:03.343Z,83.69
2023-05-25T06:04:30.844Z,81.25
2023-05-25T06:06:59.131Z,80.27
2023-05-25T06:09:26.835Z,80.22
2023-05-25T06:11:54.372Z,80.14
2023-05-25T06:14:21.851Z,80.49
2023-05-25T06:16:49.362Z,79.98
2023-05-25T06:19:16.895Z,79.90
2023-05-25T06:21:44.615Z,78.00
2023-05-25T06:24:12.128Z,79.77
2023-05-25T06:26:39.585Z,78.86
2023-05-25T06:29:07.172Z,80.29
2023-05-25T06:31:34.662Z,79.06
2023-05-25T06:34:02.157Z,79.84
2023-05-25T06:36:29.683Z,78.80
2023-05-25T06:38:57.140Z,80.02
2023-05-25T06:41:24.573Z,82.24
2023-05-25T06:43:52.078Z,81.07
2023-05-25T06:46:19.519Z,79.04
2023-05-25T06:48:47.516Z,80.03
2023-05-25T06:51:15.044Z,78.44
2023-05-25T06:53:42.453Z,79.06
2023-05-25T06:56:09.935Z,78.98
2023-05-25T06:58:37.502Z,78.21
2023-05-25T07:01:05.869Z,78.63
2023-05-25T07:03:33.583Z,78.83
2023-05-25T07:06:01.120Z,79.54
2023-05-25T07:08:28.687Z,77.10
2023-05-25T07:10:56.216Z,76.52
2023-05-25T07:13:23.795Z,79.01
2023-05-25T07:15:52.856Z,80.13
2023-05-25T07:18:20.566Z,75.90
2023-05-25T07:20:48.388Z,75.85
2023-05-25T07:23:15.984Z,77.50
2023-05-25T07:25:43.581Z,75.45
2023-05-25T07:28:11.190Z,77.02
2023-05-25T07:30:38.723Z,76.46
2023-05-25T07:33:06.675Z,75.56
2023-05-25T07:35:35.570Z,73.72
2023-05-25T07:38:04.732Z,73.08
2023-05-25T07:40:32.385Z,74.92
2023-05-25T07:42:59.882Z,73.83
2023-05-25T07:45:27.443Z,74.31
2023-05-25T07:47:55.070Z,73.68
2023-05-25T07:50:23.856Z,72.76
2023-05-25T07:52:53.558Z,72.12
2023-05-25T07:55:21.519Z,72.66
2023-05-25T07:57:49.049Z,74.52
2023-05-25T08:00:18.152Z,73.58
2023-05-25T08:02:46.052Z,72.94
2023-05-25T08:05:13.888Z,71.96
2023-05-25T08:07:42.905Z,71.51
2023-05-25T08:10:11.139Z,72.68
2023-05-25T08:12:48.816Z,71.13
2023-05-25T08:15:17.719Z,68.34
2023-05-25T08:17:45.343Z,70.20
2023-05-25T08:20:14.379Z,69.04
2023-05-25T08:22:42.798Z,71.01
2023-05-25T08:25:10.452Z,71.53
2023-05-25T08:27:38.196Z,70.07
2023-05-25T08:30:07.087Z,68.36
2023-05-25T08:32:34.766Z,68.20
2023-05-25T08:35:03.658Z,67.66
2023-05-25T08:37:33.518Z,68.96
2023-05-25T08:40:02.735Z,67.32
2023-05-25T08:42:30.528Z,65.37
2023-05-25T08:44:59.018Z,66.11
2023-05-25T08:47:34.030Z,66.07
2023-05-25T08:50:04.715Z,66.49
2023-05-25T08:52:34.396Z,65.36
2023-05-25T08:55:08.794Z,67.50
2023-05-25T08:58:16.942Z,66.07
2023-05-25T09:00:58.636Z,67.17
2023-05-25T09:03:26.879Z,65.47
2023-05-25T09:05:57.232Z,67.32
2023-05-25T09:08:25.667Z,65.50
2023-05-25T09:10:53.930Z,65.11
2023-05-25T09:13:22.827Z,65.92
2023-05-25T09:15:53.037Z,65.63
2023-05-25T09:18:21.072Z,64.82
2023-05-25T09:20:49.053Z,66.76
2023-05-25T09:23:17.464Z,66.01
2023-05-25T09:25:46.492Z,65.43
2023-05-25T09:28:26.460Z,64.11
2023-05-25T09:30:56.257Z,63.39
2023-05-25T09:33:23.943Z,63.73
2023-05-25T09:35:52.147Z,62.94
2023-05-25T09:38:20.466Z,63.74
2023-05-25T09:40:48.445Z,63.48
2023-05-25T09:43:25.337Z,63.06
2023-05-25T09:45:56.615Z,62.97
2023-05-25T09:48:24.569Z,62.34
2023-05-25T09:50:52.364Z,64.71
2023-05-25T09:53:21.276Z,62.95
2023-05-25T09:55:54.318Z,62.39
2023-05-25T09:58:26.681Z,63.65
2023-05-25T10:00:57.442Z,62.01
2023-05-25T10:03:25.033Z,61.76
2023-05-25T10:05:55.274Z,63.16
2023-05-25T10:08:27.996Z,61.14
2023-05-25T10:10:56.538Z,61.97
2023-05-25T10:13:27.051Z,61.58
2023-05-25T10:15:55.313Z,61.19
2023-05-25T10:18:32.836Z,60.51
2023-05-25T10:21:05.134Z,62.26
2023-05-25T10:23:48.136Z,60.12
2023-05-25T10:26:26.357Z,60.18
2023-05-25T10:29:01.585Z,61.46
2023-05-25T10:31:30.169Z,58.58
2023-05-25T10:33:58.314Z,58.48
2023-05-25T10:36:27.367Z,57.60
2023-05-25T10:38:55.393Z,59.09
2023-05-25T10:41:23.200Z,59.92
2023-05-25T10:43:51.539Z,60.44
2023-05-25T10:46:19.387Z,60.46
2023-05-25T10:48:50.288Z,59.92
2023-05-25T10:51:21.059Z,60.24
2023-05-25T10:54:02.073Z,58.47
2023-05-25T10:56:29.649Z,58.71
2023-05-25T10:58:57.227Z,59.26
2023-05-25T11:01:25.763Z,59.26
2023-05-25T11:04:11.485Z,60.57
2023-05-25T11:06:41.942Z,61.04
2023-05-25T11:09:33.964Z,60.26
2023-05-25T11:12:04.107Z,56.75
2023-05-25T11:14:42.388Z,58.41
2023-05-25T11:17:19.822Z,59.03
2023-05-25T11:19:54.912Z,58.85
2023-05-25T11:22:37.535Z,57.66
2023-05-25T11:25:42.271Z,58.33
2023-05-25T11:28:12.112Z,58.06
2023-05-25T11:30:42.764Z,57.89
2023-05-25T11:33:10.343Z,56.95
2023-05-25T11:35:37.949Z,58.03
2023-05-25T11:38:08.701Z,58.39
2023-05-25T11:40:39.268Z,57.51
2023-05-25T11:43:09.758Z,57.31
2023-05-25T11:45:38.476Z,55.36
2023-05-25T11:48:06.509Z,56.46
2023-05-25T11:50:34.187Z,56.19
2023-05-25T11:53:07.382Z,55.65
2023-05-25T11:55:34.957Z,55.40
2023-05-25T11:58:02.451Z,55.75
2023-05-25T12:00:30.001Z,55.02
2023-05-25T12:02:58.223Z,57.00
2023-05-25T12:05:25.890Z,56.01
2023-05-25T12:07:53.410Z,56.81
2023-05-25T12:10:20.916Z,56.01
2023-05-25T12:12:52.449Z,55.83
2023-05-25T12:15:25.848Z,56.79
2023-05-25T12:17:54.491Z,56.60
2023-05-25T12:20:22.654Z,56.97
2023-05-25T12:22:50.377Z,56.41
2023-05-25T12:25:22.567Z,55.98
2023-05-25T12:28:09.523Z,55.50
2023-05-25T12:30:37.000Z,56.34
2023-05-25T12:33:05.003Z,56.33
2023-05-25T12:35:47.983Z,55.93
2023-05-25T12:38:20.327Z,54.21
2023-05-25T12:40:48.178Z,54.20
2023-05-25T12:43:17.723Z,55.98
2023-05-25T12:45:45.624Z,54.12
2023-05-25T12:48:13.150Z,54.13
2023-05-25T12:51:00.884Z,53.88
2023-05-25T12:53:29.231Z,54.22
2023-05-25T12:56:04.752Z,53.26
2023-05-25T12:58:32.322Z,53.33
2023-05-25T13:01:00.070Z,53.84
2023-05-25T13:03:31.736Z,51.99
2023-05-25T13:06:03.809Z,51.65
2023-05-25T13:08:34.005Z,51.48
2023-05-25T13:11:03.762Z,50.01
2023-05-25T13:13:31.732Z,50.09
2023-05-25T13:15:59.688Z,49.39
2023-05-25T13:18:27.259Z,49.35
2023-05-25T13:20:56.914Z,49.13
2023-05-25T13:23:24.956Z,49.57
2023-05-25T13:25:52.444Z,49.20
2023-05-25T13:28:19.926Z,47.01
2023-05-25T13:30:47.477Z,47.95
2023-05-25T13:33:15.333Z,49.37
2023-05-25T13:35:58.602Z,47.71
2023-05-25T13:38:29.902Z,49.88
2023-05-25T13:40:57.795Z,49.85
2023-05-25T13:43:25.501Z,49.35
2023-05-25T13:45:53.148Z,50.56
2023-05-25T13:48:20.678Z,48.63
2023-05-25T13:50:48.198Z,48.97
2023-05-25T13:53:15.634Z,48.73
2023-05-25T13:55:43.649Z,49.05
2023-05-25T13:58:11.250Z,50.55
2023-05-25T14:00:38.722Z,49.90
2023-05-25T14:03:07.029Z,49.73
2023-05-25T14:05:34.959Z,48.84
2023-05-25T14:08:05.119Z,48.61
2023-05-25T14:10:34.975Z,48.92
2023-05-25T14:13:02.505Z,49.54
2023-05-25T14:15:29.960Z,48.38
2023-05-25T14:17:57.675Z,47.92
2023-05-25T14:20:26.474Z,47.94
2023-05-25T14:22:54.525Z,49.12
2023-05-25T14:25:22.081Z,47.70
2023-05-25T14:27:49.585Z,48.80
2023-05-25T14:30:17.089Z,48.67
2023-05-25T14:32:44.773Z,48.69
2023-05-25T14:35:12.220Z,49.86
2023-05-25T14:37:39.655Z,50.39
2023-05-25T14:40:08.449Z,49.38
2023-05-25T14:42:35.973Z,49.93
2023-05-25T14:45:03.638Z,49.93
2023-05-25T14:47:31.165Z,50.70
2023-05-25T14:49:58.657Z,49.76
2023-05-25T14:52:26.195Z,50.59
2023-05-25T14:54:53.780Z,49.65
2023-05-25T14:57:21.226Z,50.16
2023-05-25T14:59:48.719Z,51.87
2023-05-25T15:02:16.229Z,49.50
2023-05-25T15:04:43.815Z,50.16
2023-05-25T15:07:12.905Z,50.09
2023-05-25T15:09:40.956Z,50.12
2023-05-25T15:12:08.508Z,50.06
2023-05-25T15:14:39.990Z,49.76
2023-05-25T15:17:08.158Z,50.65
2023-05-25T15:19:35.929Z,49.29
2023-05-25T15:22:04.004Z,49.36
2023-05-25T15:24:31.486Z,46.65
2023-05-25T15:26:58.989Z,47.95
2023-05-25T15:29:26.511Z,48.23
2023-05-25T15:31:54.079Z,48.45
2023-05-25T15:34:21.735Z,49.22
2023-05-25T15:36:49.272Z,49.53
2023-05-25T15:39:16.762Z,48.69
2023-05-25T15:41:44.385Z,48.89
2023-05-25T15:44:12.934Z,48.39
2023-05-25T15:46:41.283Z,49.44
2023-05-25T15:49:11.694Z,48.77
2023-05-25T15:51:43.967Z,48.96
2023-05-25T15:54:14.701Z,48.09
2023-05-25T15:56:42.576Z,47.88
2023-05-25T15:59:12.437Z,47.15
2023-05-25T16:01:40.261Z,48.06
2023-05-25T16:04:08.216Z,48.47
2023-05-25T16:06:36.968Z,49.56
2023-05-25T16:09:04.710Z,49.37
2023-05-25T16:11:34.160Z,49.76
2023-05-25T16:14:01.722Z,51.44
2023-05-25T16:16:29.714Z,51.30
2023-05-25T16:18:57.294Z,50.94
2023-05-25T16:21:24.827Z,51.02
2023-05-25T16:23:52.336Z,50.63
2023-05-25T16:26:19.812Z,50.80
2023-05-25T16:28:47.275Z,51.96
2023-05-25T16:31:15.829Z,51.64
2023-05-25T16:33:43.854Z,50.76
2023-05-25T16:36:14.292Z,51.28
2023-05-25T16:38:41.864Z,52.04
2023-05-25T16:41:09.355Z,52.23
2023-05-25T16:43:36.958Z,52.75
2023-05-25T16:46:04.842Z,51.82
2023-05-25T16:48:32.346Z,52.85
2023-05-25T16:50:59.865Z,52.02
2023-05-25T16:53:27.345Z,52.89
2023-05-25T16:55:54.767Z,54.04
2023-05-25T16:58:24.211Z,52.84
2023-05-25T17:00:51.992Z,53.27
2023-05-25T17:03:19.534Z,52.78
2023-05-25T17:05:47.055Z,52.54
2023-05-25T17:08:14.605Z,53.19
2023-05-25T17:10:48.577Z,52.80
2023-05-25T17:13:16.609Z,53.66
2023-05-25T17:15:44.284Z,52.35
2023-05-25T17:18:11.995Z,54.36
2023-05-25T17:20:39.656Z,53.78
2023-05-25T17:23:07.914Z,53.92
2023-05-25T17:25:35.425Z,53.63
2023-05-25T17:28:02.839Z,55.07
2023-05-25T17:30:30.855Z,54.56
2023-05-25T17:33:01.748Z,53.73
2023-05-25T17:35:29.586Z,53.77
2023-05-25T17:37:57.322Z,54.50
2023-05-25T17:40:24.763Z,53.82
2023-05-25T17:42:52.182Z,53.02
2023-05-25T17:45:19.842Z,53.72
2023-05-25T17:47:47.400Z,54.43
2023-05-25T17:50:14.874Z,54.15
2023-05-25T17:52:42.649Z,54.96
2023-05-25T17:55:10.738Z,55.97
2023-05-25T17:57:38.165Z,55.27
2023-05-25T18:00:07.218Z,54.87
2023-05-25T18:02:34.932Z,55.26
2023-05-25T18:05:02.647Z,54.86
2023-05-25T18:07:30.073Z,55.10
2023-05-25T18:09:57.511Z,55.19
2023-05-25T18:12:25.039Z,55.47
2023-05-25T18:14:52.487Z,56.28
2023-05-25T18:17:20.015Z,55.75
2023-05-25T18:19:47.511Z,57.53
2023-05-25T18:22:14.961Z,56.89
2023-05-25T18:24:42.396Z,56.41
2023-05-25T18:27:09.839Z,57.61
2023-05-25T18:29:39.756Z,56.02
2023-05-25T18:32:07.423Z,56.12
2023-05-25T18:34:34.889Z,56.54
2023-05-25T18:37:02.358Z,56.73
2023-05-25T18:39:31.075Z,56.33
2023-05-25T18:41:58.525Z,56.67
2023-05-25T18:44:26.939Z,57.09
2023-05-25T18:46:56.676Z,58.13
2023-05-25T18:49:24.576Z,57.31
2023-05-25T18:51:52.165Z,57.01
2023-05-25T18:54:19.635Z,57.29
2023-05-25T18:56:47.336Z,57.42
2023-05-25T18:59:14.900Z,58.26
2023-05-25T19:01:42.705Z,58.24
2023-05-25T19:04:10.347Z,58.31
2023-05-25T19:06:38.080Z,58.36
2023-05-25T19:09:05.602Z,58.67
2023-05-25T19:11:33.049Z,58.79
2023-05-25T19:14:00.623Z,59.01
2023-05-25T19:16:28.101Z,59.46
2023-05-25T19:18:55.608Z,59.95
2023-05-25T19:21:23.141Z,60.49
2023-05-25T19:23:51.814Z,60.79
2023-05-25T19:26:19.654Z,60.57
2023-05-25T19:28:47.162Z,60.93
2023-05-25T19:31:14.648Z,61.87
2023-05-25T19:33:42.084Z,61.76
2023-05-25T19:36:09.570Z,62.20
2023-05-25T19:38:41.743Z,62.49
2023-05-25T19:41:09.978Z,63.30
2023-05-25T19:43:37.963Z,64.10
2023-05-25T19:46:05.601Z,64.64
2023-05-25T19:48:33.763Z,66.38
2023-05-25T19:51:01.295Z,67.11
2023-05-25T19:53:30.592Z,66.88
2023-05-25T19:55:58.597Z,67.22
2023-05-25T19:58:26.040Z,67.31
2023-05-25T20:00:53.949Z,67.17
2023-05-25T20:03:21.572Z,66.38
2023-05-25T20:05:49.148Z,65.43
2023-05-25T20:08:16.608Z,67.61
2023-05-25T20:10:45.257Z,69.00
2023-05-25T20:13:12.861Z,68.42
2023-05-25T20:15:40.407Z,67.94
2023-05-25T20:18:07.920Z,68.33
2023-05-25T20:20:35.862Z,68.21
2023-05-25T20:23:03.930Z,68.40
2023-05-25T20:25:31.491Z,68.54
2023-05-25T20:27:58.928Z,68.46
2023-05-25T20:30:27.791Z,69.13
2023-05-25T20:32:55.286Z,67.90
2023-05-25T20:35:22.840Z,68.10
2023-05-25T20:37:50.277Z,69.29
2023-05-25T20:40:17.880Z,67.53
2023-05-25T20:42:45.398Z,68.01
2023-05-25T20:45:12.914Z,68.12
2023-05-25T20:47:41.071Z,68.54
2023-05-25T20:50:09.041Z,69.49
2023-05-25T20:52:39.499Z,69.83
2023-05-25T20:55:07.450Z,70.80
2023-05-25T20:57:34.943Z,71.96
2023-05-25T21:00:03.596Z,74.82
2023-05-25T21:02:31.278Z,76.27
2023-05-25T21:04:58.806Z,75.75
2023-05-25T21:07:26.468Z,77.04
2023-05-25T21:09:56.584Z,77.89
2023-05-25T21:12:24.188Z,76.89
2023-05-25T21:14:51.627Z,78.55
2023-05-25T21:17:20.085Z,79.63
2023-05-25T21:19:49.220Z,79.93
2023-05-25T21:22:16.900Z,79.71
2023-05-25T21:24:44.563Z,81.42
2023-05-25T21:27:12.800Z,84.58
2023-05-25T21:29:40.665Z,84.62
2023-05-25T21:32:08.263Z,83.94
2023-05-25T21:34:36.036Z,84.93
2023-05-25T21:37:03.535Z,88.06
2023-05-25T21:39:31.037Z,86.22
2023-05-25T21:41:58.486Z,87.44
2023-05-25T21:44:25.960Z,87.24
2023-05-25T21:46:53.542Z,86.14
2023-05-25T21:49:21.077Z,86.40
2023-05-25T21:51:48.558Z,89.39
2023-05-25T21:54:16.505Z,92.08
2023-05-25T21:56:43.954Z,95.48
2023-05-25T21:59:11.440Z,94.46
2023-05-25T22:01:38.929Z,92.92
2023-05-25T22:04:06.627Z,92.05
2023-05-25T22:06:34.069Z,91.96
2023-05-25T22:09:01.500Z,94.63
2023-05-25T22:11:29.005Z,92.36
2023-05-25T22:13:56.578Z,93.01
2023-05-25T22:16:24.087Z,94.12
2023-05-25T22:18:51.696Z,92.88
2023-05-25T22:21:19.161Z,95.28
2023-05-25T22:23:46.632Z,94.51
2023-05-25T22:26:14.148Z,92.69
2023-05-25T22:28:41.628Z,91.60
2023-05-25T22:31:09.595Z,92.90
2023-05-25T22:33:37.042Z,92.33
2023-05-25T22:36:04.566Z,91.75
2023-05-25T22:38:32.056Z,93.24
2023-05-25T22:40:59.553Z,93.92
2023-05-25T22:43:27.163Z,96.27
2023-05-25T22:45:54.667Z,92.22
2023-05-25T22:48:22.273Z,88.81
2023-05-25T22:50:49.737Z,87.82
2023-05-25T22:53:17.316Z,88.01
2023-05-25T22:55:47.396Z,87.43
2023-05-25T22:58:15.055Z,89.98
2023-05-25T23:00:42.489Z,90.24
2023-05-25T23:03:10.039Z,85.89
2023-05-25T23:05:37.628Z,88.92
2023-05-25T23:08:05.126Z,90.15
2023-05-25T23:10:32.640Z,87.67
2023-05-25T23:13:00.114Z,85.88
2023-05-25T23:15:28.641Z,90.45
2023-05-25T23:17:56.220Z,92.06
2023-05-25T23:20:23.829Z,88.02
2023-05-25T23:22:51.339Z,88.73
2023-05-25T23:25:18.833Z,84.65
2023-05-25T23:27:46.267Z,86.14
2023-05-25T23:30:13.787Z,83.94
2023-05-25T23:32:41.265Z,82.81
2023-05-25T23:35:09.582Z,83.27
2023-05-25T23:37:37.631Z,83.33
2023-05-25T23:40:05.757Z,85.92
2023-05-25T23:42:40.713Z,87.73
2023-05-25T23:45:09.487Z,87.80
2023-05-25T23:47:37.005Z,90.51
2023-05-25T23:50:05.485Z,88.99
2023-05-25T23:52:33.043Z,87.69
2023-05-25T23:55:00.531Z,87.27
2023-05-25T23:57:28.003Z,86.10
2023-05-25T23:59:55.944Z,89.59
